sensor_id;sensor_type;location;lat;lon;timestamp;pressure;altitude;pressure_sealevel;temperature;humidity
50368;BME280;36281;34.132;-118.018;2023-09-30T00:00:36;99507.81;;;23.91;51.34
50368;BME280;36281;34.132;-118.018;2023-09-30T00:03:05;99511.19;;;23.96;52.87
50368;BME280;36281;34.132;-118.018;2023-09-30T00:05:34;99515.13;;;23.90;51.31
50368;BME280;36281;34.132;-118.018;2023-09-30T00:08:04;99520.53;;;23.90;52.30
50368;BME280;36281;34.132;-118.018;2023-09-30T00:10:33;99523.25;;;23.90;51.86
50368;BME280;36281;34.132;-118.018;2023-09-30T00:13:02;99517.03;;;23.90;52.24
50368;BME280;36281;34.132;-118.018;2023-09-30T00:15:32;99518.63;;;23.91;52.71
50368;BME280;36281;34.132;-118.018;2023-09-30T00:18:02;99515.91;;;23.91;52.19
50368;BME280;36281;34.132;-118.018;2023-09-30T00:20:31;99527.38;;;23.88;51.76
50368;BME280;36281;34.132;-118.018;2023-09-30T00:23:00;99519.06;;;23.84;51.80
50368;BME280;36281;34.132;-118.018;2023-09-30T00:25:29;99535.28;;;23.84;51.94
50368;BME280;36281;34.132;-118.018;2023-09-30T00:27:58;99525.09;;;23.81;52.19
50368;BME280;36281;34.132;-118.018;2023-09-30T00:30:28;99530.31;;;23.78;51.82
50368;BME280;36281;34.132;-118.018;2023-09-30T00:32:59;99532.03;;;23.73;51.69
50368;BME280;36281;34.132;-118.018;2023-09-30T00:35:29;99528.34;;;23.69;51.61
50368;BME280;36281;34.132;-118.018;2023-09-30T00:38:00;99528.66;;;23.68;52.60
50368;BME280;36281;34.132;-118.018;2023-09-30T00:40:29;99525.75;;;23.64;53.31
50368;BME280;36281;34.132;-118.018;2023-09-30T00:42:58;99527.13;;;23.62;52.76
50368;BME280;36281;34.132;-118.018;2023-09-30T00:45:28;99524.53;;;23.57;52.32
50368;BME280;36281;34.132;-118.018;2023-09-30T00:47:59;99518.97;;;23.53;52.93
50368;BME280;36281;34.132;-118.018;2023-09-30T00:50:28;99518.47;;;23.51;52.68
50368;BME280;36281;34.132;-118.018;2023-09-30T00:52:57;99521.00;;;23.47;52.31
50368;BME280;36281;34.132;-118.018;2023-09-30T00:55:27;99532.72;;;23.43;54.72
50368;BME280;36281;34.132;-118.018;2023-09-30T00:57:56;99539.31;;;23.37;56.49
50368;BME280;36281;34.132;-118.018;2023-09-30T01:00:25;99531.03;;;23.33;57.23
50368;BME280;36281;34.132;-118.018;2023-09-30T01:02:54;99531.28;;;23.23;57.51
50368;BME280;36281;34.132;-118.018;2023-09-30T01:05:27;99538.81;;;23.12;58.20
50368;BME280;36281;34.132;-118.018;2023-09-30T01:07:56;99546.00;;;23.03;58.76
50368;BME280;36281;34.132;-118.018;2023-09-30T01:10:25;99535.59;;;22.96;59.10
50368;BME280;36281;34.132;-118.018;2023-09-30T01:12:54;99541.09;;;22.91;58.74
50368;BME280;36281;34.132;-118.018;2023-09-30T01:15:23;99543.88;;;22.86;59.27
50368;BME280;36281;34.132;-118.018;2023-09-30T01:17:52;99548.25;;;22.82;59.01
50368;BME280;36281;34.132;-118.018;2023-09-30T01:20:21;99537.09;;;22.75;59.71
50368;BME280;36281;34.132;-118.018;2023-09-30T01:22:53;99541.78;;;22.69;59.88
50368;BME280;36281;34.132;-118.018;2023-09-30T01:25:23;99545.38;;;22.65;60.84
50368;BME280;36281;34.132;-118.018;2023-09-30T01:27:53;99548.19;;;22.60;60.48
50368;BME280;36281;34.132;-118.018;2023-09-30T01:30:22;99547.47;;;22.54;60.92
50368;BME280;36281;34.132;-118.018;2023-09-30T01:32:51;99539.47;;;22.49;61.03
50368;BME280;36281;34.132;-118.018;2023-09-30T01:35:21;99538.78;;;22.43;61.70
50368;BME280;36281;34.132;-118.018;2023-09-30T01:37:52;99540.25;;;22.36;61.98
50368;BME280;36281;34.132;-118.018;2023-09-30T01:40:21;99544.13;;;22.30;62.18
50368;BME280;36281;34.132;-118.018;2023-09-30T01:42:52;99550.13;;;22.27;62.58
50368;BME280;36281;34.132;-118.018;2023-09-30T01:45:21;99545.13;;;22.20;62.91
50368;BME280;36281;34.132;-118.018;2023-09-30T01:47:50;99547.09;;;22.14;63.16
50368;BME280;36281;34.132;-118.018;2023-09-30T01:50:19;99545.25;;;22.10;63.33
50368;BME280;36281;34.132;-118.018;2023-09-30T01:52:48;99548.53;;;22.07;63.42
50368;BME280;36281;34.132;-118.018;2023-09-30T01:55:19;99552.13;;;22.02;63.52
50368;BME280;36281;34.132;-118.018;2023-09-30T01:57:48;99559.72;;;22.00;63.72
50368;BME280;36281;34.132;-118.018;2023-09-30T02:00:17;99548.22;;;21.94;63.88
50368;BME280;36281;34.132;-118.018;2023-09-30T02:02:46;99552.00;;;21.93;64.13
50368;BME280;36281;34.132;-118.018;2023-09-30T02:05:15;99560.66;;;21.90;64.16
50368;BME280;36281;34.132;-118.018;2023-09-30T02:07:44;99559.06;;;21.89;64.33
50368;BME280;36281;34.132;-118.018;2023-09-30T02:10:13;99553.47;;;21.86;64.59
50368;BME280;36281;34.132;-118.018;2023-09-30T02:12:44;99559.44;;;21.83;64.57
50368;BME280;36281;34.132;-118.018;2023-09-30T02:15:13;99564.31;;;21.81;64.84
50368;BME280;36281;34.132;-118.018;2023-09-30T02:17:43;99556.88;;;21.73;64.96
50368;BME280;36281;34.132;-118.018;2023-09-30T02:20:14;99557.56;;;21.64;65.60
50368;BME280;36281;34.132;-118.018;2023-09-30T02:22:47;99564.06;;;21.63;65.58
50368;BME280;36281;34.132;-118.018;2023-09-30T02:25:17;99570.53;;;21.62;65.46
50368;BME280;36281;34.132;-118.018;2023-09-30T02:27:50;99563.69;;;21.51;65.79
50368;BME280;36281;34.132;-118.018;2023-09-30T02:30:19;99565.88;;;21.49;66.05
50368;BME280;36281;34.132;-118.018;2023-09-30T02:32:49;99571.34;;;21.44;66.29
50368;BME280;36281;34.132;-118.018;2023-09-30T02:35:18;99573.56;;;21.37;66.51
50368;BME280;36281;34.132;-118.018;2023-09-30T02:37:49;99569.28;;;21.36;66.79
50368;BME280;36281;34.132;-118.018;2023-09-30T02:40:20;99563.16;;;21.30;66.66
50368;BME280;36281;34.132;-118.018;2023-09-30T02:42:55;99563.16;;;21.30;66.79
50368;BME280;36281;34.132;-118.018;2023-09-30T02:45:24;99570.97;;;21.27;67.08
50368;BME280;36281;34.132;-118.018;2023-09-30T02:47:53;99575.06;;;21.24;67.08
50368;BME280;36281;34.132;-118.018;2023-09-30T02:50:22;99583.94;;;21.25;66.88
50368;BME280;36281;34.132;-118.018;2023-09-30T02:52:51;99580.84;;;21.12;67.34
50368;BME280;36281;34.132;-118.018;2023-09-30T02:55:20;99594.31;;;21.12;67.15
50368;BME280;36281;34.132;-118.018;2023-09-30T02:57:49;99594.38;;;21.07;67.59
50368;BME280;36281;34.132;-118.018;2023-09-30T03:00:21;99595.19;;;21.08;67.65
50368;BME280;36281;34.132;-118.018;2023-09-30T03:02:54;99598.16;;;21.06;67.78
50368;BME280;36281;34.132;-118.018;2023-09-30T03:05:24;99591.19;;;21.05;67.61
50368;BME280;36281;34.132;-118.018;2023-09-30T03:07:53;99590.66;;;21.03;67.69
50368;BME280;36281;34.132;-118.018;2023-09-30T03:10:23;99590.66;;;21.03;67.35
50368;BME280;36281;34.132;-118.018;2023-09-30T03:12:52;99597.13;;;21.02;67.30
50368;BME280;36281;34.132;-118.018;2023-09-30T03:15:23;99599.63;;;20.99;67.37
50368;BME280;36281;34.132;-118.018;2023-09-30T03:17:52;99609.00;;;21.01;67.22
50368;BME280;36281;34.132;-118.018;2023-09-30T03:20:21;99609.56;;;20.98;67.41
50368;BME280;36281;34.132;-118.018;2023-09-30T03:22:53;99599.88;;;20.97;67.66
50368;BME280;36281;34.132;-118.018;2023-09-30T03:25:22;99604.19;;;20.98;67.60
50368;BME280;36281;34.132;-118.018;2023-09-30T03:27:51;99606.38;;;20.96;67.74
50368;BME280;36281;34.132;-118.018;2023-09-30T03:30:22;99619.81;;;20.96;67.89
50368;BME280;36281;34.132;-118.018;2023-09-30T03:32:51;99625.03;;;20.87;68.19
50368;BME280;36281;34.132;-118.018;2023-09-30T03:35:21;99626.66;;;20.88;68.08
50368;BME280;36281;34.132;-118.018;2023-09-30T03:37:50;99635.53;;;20.89;68.04
50368;BME280;36281;34.132;-118.018;2023-09-30T03:40:19;99643.59;;;20.89;68.07
50368;BME280;36281;34.132;-118.018;2023-09-30T03:42:48;99641.97;;;20.88;68.00
50368;BME280;36281;34.132;-118.018;2023-09-30T03:45:22;99633.41;;;20.86;67.98
50368;BME280;36281;34.132;-118.018;2023-09-30T03:47:51;99628.06;;;20.81;67.80
50368;BME280;36281;34.132;-118.018;2023-09-30T03:50:20;99635.34;;;20.80;67.68
50368;BME280;36281;34.132;-118.018;2023-09-30T03:52:52;99634.00;;;20.78;67.63
50368;BME280;36281;34.132;-118.018;2023-09-30T03:55:29;99634.28;;;20.76;67.60
50368;BME280;36281;34.132;-118.018;2023-09-30T03:57:58;99626.53;;;20.75;67.55
50368;BME280;36281;34.132;-118.018;2023-09-30T04:00:30;99642.38;;;20.76;67.50
50368;BME280;36281;34.132;-118.018;2023-09-30T04:02:59;99646.16;;;20.75;67.55
50368;BME280;36281;34.132;-118.018;2023-09-30T04:05:29;99642.66;;;20.75;67.82
50368;BME280;36281;34.132;-118.018;2023-09-30T04:08:00;99636.75;;;20.73;67.91
50368;BME280;36281;34.132;-118.018;2023-09-30T04:10:29;99630.63;;;20.67;67.88
50368;BME280;36281;34.132;-118.018;2023-09-30T04:12:58;99635.72;;;20.69;68.14
50368;BME280;36281;34.132;-118.018;2023-09-30T04:15:29;99636.78;;;20.68;68.19
50368;BME280;36281;34.132;-118.018;2023-09-30T04:17:59;99641.66;;;20.65;68.45
50368;BME280;36281;34.132;-118.018;2023-09-30T04:20:29;99637.38;;;20.64;68.41
50368;BME280;36281;34.132;-118.018;2023-09-30T04:22:58;99634.94;;;20.63;68.61
50368;BME280;36281;34.132;-118.018;2023-09-30T04:25:27;99618.00;;;20.62;68.69
50368;BME280;36281;34.132;-118.018;2023-09-30T04:27:56;99627.19;;;20.61;68.80
50368;BME280;36281;34.132;-118.018;2023-09-30T04:30:25;99618.59;;;20.59;68.67
50368;BME280;36281;34.132;-118.018;2023-09-30T04:32:57;99616.16;;;20.58;68.82
50368;BME280;36281;34.132;-118.018;2023-09-30T04:35:27;99626.13;;;20.57;69.06
50368;BME280;36281;34.132;-118.018;2023-09-30T04:37:58;99619.16;;;20.56;68.88
50368;BME280;36281;34.132;-118.018;2023-09-30T04:40:30;99615.97;;;20.54;68.98
50368;BME280;36281;34.132;-118.018;2023-09-30T04:42:59;99627.28;;;20.51;69.13
50368;BME280;36281;34.132;-118.018;2023-09-30T04:45:28;99630.50;;;20.48;68.97
50368;BME280;36281;34.132;-118.018;2023-09-30T04:47:59;99626.75;;;20.49;69.27
50368;BME280;36281;34.132;-118.018;2023-09-30T04:50:29;99635.63;;;20.50;69.53
50368;BME280;36281;34.132;-118.018;2023-09-30T04:52:59;99622.97;;;20.50;69.25
50368;BME280;36281;34.132;-118.018;2023-09-30T04:55:27;99629.97;;;20.51;69.12
50368;BME280;36281;34.132;-118.018;2023-09-30T04:57:56;99626.75;;;20.49;69.14
50368;BME280;36281;34.132;-118.018;2023-09-30T05:00:25;99617.88;;;20.49;69.51
50368;BME280;36281;34.132;-118.018;2023-09-30T05:02:58;99618.41;;;20.51;69.29
50368;BME280;36281;34.132;-118.018;2023-09-30T05:05:27;99628.06;;;20.52;69.25
50368;BME280;36281;34.132;-118.018;2023-09-30T05:07:57;99616.50;;;20.51;69.06
50368;BME280;36281;34.132;-118.018;2023-09-30T05:10:26;99624.06;;;20.49;68.76
50368;BME280;36281;34.132;-118.018;2023-09-30T05:12:56;99627.81;;;20.48;68.76
50368;BME280;36281;34.132;-118.018;2023-09-30T05:15:25;99625.69;;;20.45;69.11
50368;BME280;36281;34.132;-118.018;2023-09-30T05:17:59;99619.22;;;20.46;69.46
50368;BME280;36281;34.132;-118.018;2023-09-30T05:20:29;99610.63;;;20.44;69.15
50368;BME280;36281;34.132;-118.018;2023-09-30T05:22:58;99619.22;;;20.46;69.82
50368;BME280;36281;34.132;-118.018;2023-09-30T05:25:27;99618.41;;;20.46;69.47
50368;BME280;36281;34.132;-118.018;2023-09-30T05:27:56;99620.84;;;20.47;69.52
50368;BME280;36281;34.132;-118.018;2023-09-30T05:30:25;99627.28;;;20.46;69.75
50368;BME280;36281;34.132;-118.018;2023-09-30T05:32:54;99640.72;;;20.46;70.09
50368;BME280;36281;34.132;-118.018;2023-09-30T05:35:25;99632.41;;;20.48;69.81
50368;BME280;36281;34.132;-118.018;2023-09-30T05:37:55;99636.97;;;20.47;69.80
50368;BME280;36281;34.132;-118.018;2023-09-30T05:40:24;99633.75;;;20.45;69.69
50368;BME280;36281;34.132;-118.018;2023-09-30T05:42:58;99627.34;;;20.41;69.84
50368;BME280;36281;34.132;-118.018;2023-09-30T05:45:31;99630.53;;;20.43;70.16
50368;BME280;36281;34.132;-118.018;2023-09-30T05:48:03;99634.31;;;20.42;70.12
50368;BME280;36281;34.132;-118.018;2023-09-30T05:50:37;99623.00;;;20.45;70.02
50368;BME280;36281;34.132;-118.018;2023-09-30T05:53:06;99629.47;;;20.44;70.10
50368;BME280;36281;34.132;-118.018;2023-09-30T05:55:35;99631.31;;;20.44;69.98
50368;BME280;36281;34.132;-118.018;2023-09-30T05:58:04;99632.41;;;20.43;69.92
50368;BME280;36281;34.132;-118.018;2023-09-30T06:00:34;99628.16;;;20.36;69.88
50368;BME280;36281;34.132;-118.018;2023-09-30T06:03:04;99638.88;;;20.42;70.07
50368;BME280;36281;34.132;-118.018;2023-09-30T06:05:38;99638.69;;;20.33;69.99
50368;BME280;36281;34.132;-118.018;2023-09-30T06:08:09;99636.00;;;20.33;69.94
50368;BME280;36281;34.132;-118.018;2023-09-30T06:10:44;99644.59;;;20.35;69.99
50368;BME280;36281;34.132;-118.018;2023-09-30T06:13:14;99639.47;;;20.33;69.91
50368;BME280;36281;34.132;-118.018;2023-09-30T06:15:43;99644.34;;;20.31;70.24
50368;BME280;36281;34.132;-118.018;2023-09-30T06:18:15;99650.53;;;20.32;70.44
50368;BME280;36281;34.132;-118.018;2023-09-30T06:20:45;99645.16;;;20.32;70.69
50368;BME280;36281;34.132;-118.018;2023-09-30T06:23:14;99641.94;;;20.30;70.88
50368;BME280;36281;34.132;-118.018;2023-09-30T06:25:44;99648.94;;;20.31;70.84
50368;BME280;36281;34.132;-118.018;2023-09-30T06:28:13;99646.00;;;20.27;70.82
50368;BME280;36281;34.132;-118.018;2023-09-30T06:30:42;99642.50;;;20.27;71.45
50368;BME280;36281;34.132;-118.018;2023-09-30T06:33:14;99635.53;;;20.26;71.34
50368;BME280;36281;34.132;-118.018;2023-09-30T06:35:45;99632.03;;;20.25;71.83
50368;BME280;36281;34.132;-118.018;2023-09-30T06:38:19;99641.72;;;20.26;71.58
50368;BME280;36281;34.132;-118.018;2023-09-30T06:40:48;99652.47;;;20.26;72.09
50368;BME280;36281;34.132;-118.018;2023-09-30T06:43:17;99650.06;;;20.25;72.02
50368;BME280;36281;34.132;-118.018;2023-09-30T06:45:46;99643.63;;;20.21;71.55
50368;BME280;36281;34.132;-118.018;2023-09-30T06:48:15;99661.66;;;20.20;71.63
50368;BME280;36281;34.132;-118.018;2023-09-30T06:50:47;99660.84;;;20.20;71.80
50368;BME280;36281;34.132;-118.018;2023-09-30T06:53:17;99658.16;;;20.20;72.29
50368;BME280;36281;34.132;-118.018;2023-09-30T06:55:47;99660.84;;;20.20;72.82
50368;BME280;36281;34.132;-118.018;2023-09-30T06:58:16;99663.03;;;20.12;73.14
50368;BME280;36281;34.132;-118.018;2023-09-30T07:00:50;99665.50;;;20.09;74.47
50368;BME280;36281;34.132;-118.018;2023-09-30T07:03:19;99669.25;;;20.08;75.52
50368;BME280;36281;34.132;-118.018;2023-09-30T07:05:55;99669.03;;;20.04;76.42
50368;BME280;36281;34.132;-118.018;2023-09-30T07:08:25;99672.00;;;19.98;77.15
50368;BME280;36281;34.132;-118.018;2023-09-30T07:10:54;99664.25;;;19.91;78.17
50368;BME280;36281;34.132;-118.018;2023-09-30T07:13:24;99668.59;;;19.82;79.29
50368;BME280;36281;34.132;-118.018;2023-09-30T07:15:53;99664.34;;;19.76;80.71
50368;BME280;36281;34.132;-118.018;2023-09-30T07:18:23;99667.06;;;19.71;79.99
50368;BME280;36281;34.132;-118.018;2023-09-30T07:20:54;99667.59;;;19.68;80.47
50368;BME280;36281;34.132;-118.018;2023-09-30T07:23:23;99659.56;;;19.62;80.71
50368;BME280;36281;34.132;-118.018;2023-09-30T07:25:52;99658.47;;;19.63;81.19
50368;BME280;36281;34.132;-118.018;2023-09-30T07:28:21;99656.09;;;19.62;81.57
50368;BME280;36281;34.132;-118.018;2023-09-30T07:30:50;99659.06;;;19.60;81.72
50368;BME280;36281;34.132;-118.018;2023-09-30T07:33:19;99659.06;;;19.60;81.72
50368;BME280;36281;34.132;-118.018;2023-09-30T07:35:48;99653.91;;;19.59;82.31
50368;BME280;36281;34.132;-118.018;2023-09-30T07:38:19;99641.56;;;19.58;82.50
50368;BME280;36281;34.132;-118.018;2023-09-30T07:40:48;99644.03;;;19.54;82.76
50368;BME280;36281;34.132;-118.018;2023-09-30T07:43:17;99651.25;;;19.54;82.65
50368;BME280;36281;34.132;-118.018;2023-09-30T07:45:48;99646.72;;;19.54;82.90
50368;BME280;36281;34.132;-118.018;2023-09-30T07:48:17;99641.88;;;19.51;82.94
50368;BME280;36281;34.132;-118.018;2023-09-30T07:50:46;99642.69;;;19.52;82.97
50368;BME280;36281;34.132;-118.018;2023-09-30T07:53:16;99653.41;;;19.52;82.99
50368;BME280;36281;34.132;-118.018;2023-09-30T07:55:46;99654.50;;;19.51;83.00
50368;BME280;36281;34.132;-118.018;2023-09-30T07:58:15;99659.06;;;19.50;83.53
50368;BME280;36281;34.132;-118.018;2023-09-30T08:00:44;99648.34;;;19.50;83.45
50368;BME280;36281;34.132;-118.018;2023-09-30T08:03:14;99649.41;;;19.49;83.73
50368;BME280;36281;34.132;-118.018;2023-09-30T08:05:43;99649.66;;;19.48;84.05
50368;BME280;36281;34.132;-118.018;2023-09-30T08:08:12;99653.44;;;19.47;84.17
50368;BME280;36281;34.132;-118.018;2023-09-30T08:10:42;99659.59;;;19.47;84.08
50368;BME280;36281;34.132;-118.018;2023-09-30T08:13:12;99660.16;;;19.44;83.43
50368;BME280;36281;34.132;-118.018;2023-09-30T08:15:41;99666.34;;;19.45;83.20
50368;BME280;36281;34.132;-118.018;2023-09-30T08:18:10;99659.34;;;19.44;83.21
50368;BME280;36281;34.132;-118.018;2023-09-30T08:20:39;99655.88;;;19.43;83.07
50368;BME280;36281;34.132;-118.018;2023-09-30T08:23:08;99651.09;;;19.35;83.39
50368;BME280;36281;34.132;-118.018;2023-09-30T08:25:37;99654.81;;;19.39;83.46
50368;BME280;36281;34.132;-118.018;2023-09-30T08:28:06;99663.94;;;19.38;83.79
50368;BME280;36281;34.132;-118.018;2023-09-30T08:30:39;99657.50;;;19.34;83.94
50368;BME280;36281;34.132;-118.018;2023-09-30T08:33:08;99657.00;;;19.32;84.23
50368;BME280;36281;34.132;-118.018;2023-09-30T08:35:37;99665.03;;;19.32;84.14
50368;BME280;36281;34.132;-118.018;2023-09-30T08:38:06;99668.00;;;19.35;84.27
50368;BME280;36281;34.132;-118.018;2023-09-30T08:40:35;99656.16;;;19.36;84.05
50368;BME280;36281;34.132;-118.018;2023-09-30T08:43:04;99654.56;;;19.35;84.14
50368;BME280;36281;34.132;-118.018;2023-09-30T08:45:39;99652.13;;;19.34;84.08
50368;BME280;36281;34.132;-118.018;2023-09-30T08:48:08;99654.31;;;19.32;83.49
50368;BME280;36281;34.132;-118.018;2023-09-30T08:50:39;99658.06;;;19.31;82.66
50368;BME280;36281;34.132;-118.018;2023-09-30T08:53:11;99671.22;;;19.27;82.67
50368;BME280;36281;34.132;-118.018;2023-09-30T08:55:44;99676.63;;;19.22;82.19
50368;BME280;36281;34.132;-118.018;2023-09-30T08:58:15;99669.66;;;19.21;82.12
50368;BME280;36281;34.132;-118.018;2023-09-30T09:00:46;99679.31;;;19.22;81.71
50368;BME280;36281;34.132;-118.018;2023-09-30T09:03:17;99670.97;;;19.24;80.95
50368;BME280;36281;34.132;-118.018;2023-09-30T09:05:47;99655.13;;;19.27;80.70
50368;BME280;36281;34.132;-118.018;2023-09-30T09:08:22;99661.84;;;19.30;80.51
50368;BME280;36281;34.132;-118.018;2023-09-30T09:10:57;99653.00;;;19.29;80.16
50368;BME280;36281;34.132;-118.018;2023-09-30T09:13:27;99667.44;;;19.33;79.69
50368;BME280;36281;34.132;-118.018;2023-09-30T09:16:10;99674.16;;;19.36;80.13
50368;BME280;36281;34.132;-118.018;2023-09-30T09:18:39;99665.56;;;19.34;80.15
50368;BME280;36281;34.132;-118.018;2023-09-30T09:21:09;99660.75;;;19.31;79.99
50368;BME280;36281;34.132;-118.018;2023-09-30T09:23:43;99659.13;;;19.35;80.07
50368;BME280;36281;34.132;-118.018;2023-09-30T09:26:12;99661.25;;;19.38;80.48
50368;BME280;36281;34.132;-118.018;2023-09-30T09:28:45;99644.63;;;19.36;80.31
50368;BME280;36281;34.132;-118.018;2023-09-30T09:31:25;99645.44;;;19.36;79.99
50368;BME280;36281;34.132;-118.018;2023-09-30T09:33:55;99643.81;;;19.35;79.30
50368;BME280;36281;34.132;-118.018;2023-09-30T09:36:39;99646.75;;;19.34;78.15
50368;BME280;36281;34.132;-118.018;2023-09-30T09:39:08;99632.81;;;19.32;78.03
50368;BME280;36281;34.132;-118.018;2023-09-30T09:41:50;99636.84;;;19.34;78.43
50368;BME280;36281;34.132;-118.018;2023-09-30T09:44:20;99636.03;;;19.34;78.38
50368;BME280;36281;34.132;-118.018;2023-09-30T09:46:56;99633.34;;;19.34;78.34
50368;BME280;36281;34.132;-118.018;2023-09-30T09:49:27;99627.16;;;19.33;77.43
50368;BME280;36281;34.132;-118.018;2023-09-30T09:51:58;99632.81;;;19.32;76.22
50368;BME280;36281;34.132;-118.018;2023-09-30T09:54:27;99623.69;;;19.33;76.23
50368;BME280;36281;34.132;-118.018;2023-09-30T09:57:00;99630.66;;;19.34;76.63
50368;BME280;36281;34.132;-118.018;2023-09-30T09:59:31;99633.63;;;19.32;76.88
50368;BME280;36281;34.132;-118.018;2023-09-30T10:02:09;99627.19;;;19.28;76.80
50368;BME280;36281;34.132;-118.018;2023-09-30T10:04:39;99626.38;;;19.28;76.96
50368;BME280;36281;34.132;-118.018;2023-09-30T10:07:11;99624.00;;;19.26;76.94
50368;BME280;36281;34.132;-118.018;2023-09-30T10:09:47;99623.44;;;19.29;77.16
50368;BME280;36281;34.132;-118.018;2023-09-30T10:12:19;99629.34;;;19.26;76.90
50368;BME280;36281;34.132;-118.018;2023-09-30T10:14:51;99630.69;;;19.24;76.86
50368;BME280;36281;34.132;-118.018;2023-09-30T10:20:44;99625.59;;;19.22;76.43
50368;BME280;36281;34.132;-118.018;2023-09-30T10:23:22;99630.69;;;19.24;76.75
50368;BME280;36281;34.132;-118.018;2023-09-30T10:26:14;99622.91;;;19.22;76.36
50368;BME280;36281;34.132;-118.018;2023-09-30T10:28:46;99619.16;;;19.23;76.65
50368;BME280;36281;34.132;-118.018;2023-09-30T10:31:19;99616.47;;;19.23;76.75
50368;BME280;36281;34.132;-118.018;2023-09-30T10:34:22;99611.09;;;19.23;77.20
50368;BME280;36281;34.132;-118.018;2023-09-30T10:36:51;99599.56;;;19.23;77.27
50368;BME280;36281;34.132;-118.018;2023-09-30T10:39:55;99597.69;;;19.18;77.29
50368;BME280;36281;34.132;-118.018;2023-09-30T10:42:49;99605.53;;;19.15;76.88
50368;BME280;36281;34.132;-118.018;2023-09-30T10:45:45;99603.34;;;19.17;77.36
50368;BME280;36281;34.132;-118.018;2023-09-30T10:48:36;99592.63;;;19.17;77.22
50368;BME280;36281;34.132;-118.018;2023-09-30T10:51:18;99605.25;;;19.11;77.29
50368;BME280;36281;34.132;-118.018;2023-09-30T10:53:50;99609.03;;;19.05;77.20
50368;BME280;36281;34.132;-118.018;2023-09-30T10:56:32;99606.09;;;19.01;77.57
50368;BME280;36281;34.132;-118.018;2023-09-30T10:59:02;99609.31;;;18.98;77.66
50368;BME280;36281;34.132;-118.018;2023-09-30T11:01:33;99599.38;;;18.99;78.12
50368;BME280;36281;34.132;-118.018;2023-09-30T11:04:06;99602.59;;;19.01;78.37
50368;BME280;36281;34.132;-118.018;2023-09-30T11:06:40;99601.53;;;19.02;78.20
50368;BME280;36281;34.132;-118.018;2023-09-30T11:09:09;99599.63;;;19.02;78.64
50368;BME280;36281;34.132;-118.018;2023-09-30T11:11:42;99595.88;;;18.98;78.26
50368;BME280;36281;34.132;-118.018;2023-09-30T11:14:22;99587.31;;;18.96;78.21
50368;BME280;36281;34.132;-118.018;2023-09-30T11:16:56;99599.66;;;18.97;78.28
50368;BME280;36281;34.132;-118.018;2023-09-30T11:19:25;99597.50;;;18.99;78.74
50368;BME280;36281;34.132;-118.018;2023-09-30T11:21:57;99590.53;;;18.98;78.91
50368;BME280;36281;34.132;-118.018;2023-09-30T11:24:29;99596.19;;;18.97;78.47
50368;BME280;36281;34.132;-118.018;2023-09-30T11:26:59;99598.84;;;18.97;78.26
50368;BME280;36281;34.132;-118.018;2023-09-30T11:29:28;99595.88;;;18.98;78.34
50368;BME280;36281;34.132;-118.018;2023-09-30T11:31:57;99602.84;;;18.99;78.13
50368;BME280;36281;34.132;-118.018;2023-09-30T11:34:32;99601.53;;;18.97;77.48
50368;BME280;36281;34.132;-118.018;2023-09-30T11:37:04;99599.94;;;18.96;77.31
50368;BME280;36281;34.132;-118.018;2023-09-30T11:39:38;99595.88;;;18.98;77.40
50368;BME280;36281;34.132;-118.018;2023-09-30T11:42:15;99593.75;;;19.00;77.61
50368;BME280;36281;34.132;-118.018;2023-09-30T11:44:46;99594.81;;;18.99;77.18
50368;BME280;36281;34.132;-118.018;2023-09-30T11:47:15;99592.13;;;18.99;76.67
50368;BME280;36281;34.132;-118.018;2023-09-30T11:49:52;99597.78;;;18.98;75.60
50368;BME280;36281;34.132;-118.018;2023-09-30T11:52:28;99596.97;;;18.97;75.03
50368;BME280;36281;34.132;-118.018;2023-09-30T11:54:57;99589.72;;;18.98;75.08
50368;BME280;36281;34.132;-118.018;2023-09-30T11:57:26;99586.75;;;18.99;74.90
50368;BME280;36281;34.132;-118.018;2023-09-30T12:00:05;99590.81;;;18.97;74.76
50368;BME280;36281;34.132;-118.018;2023-09-30T12:02:42;99595.38;;;18.96;74.69
50368;BME280;36281;34.132;-118.018;2023-09-30T12:05:11;99597.78;;;18.98;74.79
50368;BME280;36281;34.132;-118.018;2023-09-30T12:07:41;99601.03;;;18.95;75.09
50368;BME280;36281;34.132;-118.018;2023-09-30T12:10:10;99606.38;;;18.95;74.84
50368;BME280;36281;34.132;-118.018;2023-09-30T12:12:42;99604.50;;;18.95;75.41
50368;BME280;36281;34.132;-118.018;2023-09-30T12:15:13;99606.94;;;18.92;75.31
50368;BME280;36281;34.132;-118.018;2023-09-30T12:17:45;99596.72;;;18.89;75.70
50368;BME280;36281;34.132;-118.018;2023-09-30T12:20:14;99596.47;;;18.90;76.20
50368;BME280;36281;34.132;-118.018;2023-09-30T12:22:44;99604.53;;;18.90;76.32
50368;BME280;36281;34.132;-118.018;2023-09-30T12:25:13;99602.63;;;18.91;76.47
50368;BME280;36281;34.132;-118.018;2023-09-30T12:27:43;99595.69;;;18.90;76.91
50368;BME280;36281;34.132;-118.018;2023-09-30T12:30:16;99606.13;;;18.86;76.60
50368;BME280;36281;34.132;-118.018;2023-09-30T12:32:48;99609.34;;;18.83;75.90
50368;BME280;36281;34.132;-118.018;2023-09-30T12:35:17;99609.91;;;18.85;76.49
50368;BME280;36281;34.132;-118.018;2023-09-30T12:37:46;99617.66;;;18.87;76.39
50368;BME280;36281;34.132;-118.018;2023-09-30T12:40:15;99618.47;;;18.87;76.38
50368;BME280;36281;34.132;-118.018;2023-09-30T12:42:45;99615.78;;;18.87;76.61
50368;BME280;36281;34.132;-118.018;2023-09-30T12:45:17;99615.78;;;18.87;77.18
50368;BME280;36281;34.132;-118.018;2023-09-30T12:47:46;99610.41;;;18.87;77.41
50368;BME280;36281;34.132;-118.018;2023-09-30T12:50:16;99607.75;;;18.87;77.63
50368;BME280;36281;34.132;-118.018;2023-09-30T12:52:45;99609.91;;;18.85;77.61